createdAt,value
2018-07-10T00:00:36.736Z,99221.00
2018-07-10T00:03:22.090Z,99215.00
2018-07-10T00:06:40.831Z,99210.00
2018-07-10T00:08:59.263Z,99206.00
2018-07-10T00:11:26.032Z,99206.00
2018-07-10T00:13:29.847Z,99201.00
2018-07-10T00:15:34.478Z,99199.00
2018-07-10T00:17:38.481Z,99197.00
2018-07-10T00:19:42.444Z,99200.00
2018-07-10T00:21:50.359Z,99206.00
2018-07-10T00:23:54.069Z,99202.00
2018-07-10T00:25:57.643Z,99195.00
2018-07-10T00:28:01.372Z,99194.00
2018-07-10T00:30:06.178Z,99201.00
2018-07-10T00:32:13.568Z,99198.00
2018-07-10T00:34:18.894Z,99201.00
2018-07-10T00:36:25.388Z,99213.00
2018-07-10T00:39:03.181Z,99203.00
2018-07-10T00:41:10.338Z,99201.00
2018-07-10T00:43:17.967Z,99192.00
2018-07-10T00:45:22.589Z,99197.00
2018-07-10T00:47:26.787Z,99203.00
2018-07-10T00:49:31.079Z,99200.00
2018-07-10T00:51:36.320Z,99220.00
2018-07-10T00:53:39.901Z,99217.00
2018-07-10T00:55:44.125Z,99213.00
2018-07-10T00:57:47.673Z,99210.00
2018-07-10T00:59:51.250Z,99210.00
2018-07-10T01:01:56.207Z,99211.00
2018-07-10T01:03:59.748Z,99211.00
2018-07-10T01:06:03.515Z,99208.00
2018-07-10T01:08:11.265Z,99203.00
2018-07-10T01:10:16.486Z,99200.00
2018-07-10T01:12:21.420Z,99202.00
2018-07-10T01:14:26.113Z,99204.00
2018-07-10T01:16:38.831Z,99197.00
2018-07-10T01:18:45.530Z,99181.00
2018-07-10T01:20:49.600Z,99189.00
2018-07-10T01:22:53.754Z,99185.00
2018-07-10T01:24:57.654Z,99182.00
2018-07-10T01:27:03.106Z,99182.00
2018-07-10T01:29:17.522Z,99181.00
2018-07-10T01:31:22.974Z,99171.00
2018-07-10T01:33:26.878Z,99175.00
2018-07-10T01:35:30.677Z,99165.00
2018-07-10T01:37:34.690Z,99163.00
2018-07-10T01:39:38.519Z,99161.00
2018-07-10T01:41:42.109Z,99168.00
2018-07-10T01:43:45.832Z,99160.00
2018-07-10T01:45:49.743Z,99155.00
2018-07-10T01:47:53.526Z,99139.00
2018-07-10T01:49:57.333Z,99144.00
2018-07-10T01:52:01.236Z,99149.00
2018-07-10T01:54:06.563Z,99139.00
2018-07-10T01:56:13.807Z,99140.00
2018-07-10T01:58:20.901Z,99141.00
2018-07-10T02:00:40.633Z,99126.00
2018-07-10T02:02:44.368Z,99125.00
2018-07-10T02:04:48.375Z,99130.00
2018-07-10T02:06:52.022Z,99127.00
2018-07-10T02:08:56.167Z,99129.00
2018-07-10T02:11:00.158Z,99141.00
2018-07-10T02:13:03.840Z,99148.00
2018-07-10T02:15:11.069Z,99135.00
2018-07-10T02:17:16.914Z,99128.00
2018-07-10T02:19:24.144Z,99124.00
2018-07-10T02:21:28.550Z,99119.00
2018-07-10T02:23:41.442Z,99123.00
2018-07-10T02:25:44.987Z,99119.00
2018-07-10T02:27:48.734Z,99110.00
2018-07-10T02:29:52.518Z,99118.00
2018-07-10T02:31:56.066Z,99119.00
2018-07-10T02:34:01.779Z,99122.00
2018-07-10T02:36:08.178Z,99131.00
2018-07-10T02:38:16.083Z,99127.00
2018-07-10T02:40:23.622Z,99121.00
2018-07-10T02:42:28.670Z,99129.00
2018-07-10T02:44:32.188Z,99118.00
2018-07-10T02:46:36.714Z,99115.00
2018-07-10T02:48:40.554Z,99116.00
2018-07-10T02:50:44.914Z,99127.00
2018-07-10T02:52:48.460Z,99131.00
2018-07-10T02:54:52.885Z,99142.00
2018-07-10T02:56:57.171Z,99140.00
2018-07-10T02:59:02.800Z,99151.00
2018-07-10T03:01:10.397Z,99139.00
2018-07-10T03:03:16.498Z,99152.00
2018-07-10T03:05:23.911Z,99153.00
2018-07-10T03:07:29.143Z,99145.00
2018-07-10T03:09:32.760Z,99154.00
2018-07-10T03:11:36.708Z,99130.00
2018-07-10T03:13:40.775Z,99137.00
2018-07-10T03:15:44.241Z,99139.00
2018-07-10T03:17:48.215Z,99144.00
2018-07-10T03:19:52.945Z,99156.00
2018-07-10T03:21:56.429Z,99154.00
2018-07-10T03:24:00.201Z,99138.00
2018-07-10T03:26:04.793Z,99168.00
2018-07-10T03:28:12.385Z,99165.00
2018-07-10T03:30:18.401Z,99145.00
2018-07-10T03:32:23.951Z,99161.00
2018-07-10T03:34:27.417Z,99160.00
2018-07-10T03:36:31.040Z,99157.00
2018-07-10T03:38:34.828Z,99157.00
2018-07-10T03:40:39.447Z,99157.00
2018-07-10T03:42:43.308Z,99159.00
2018-07-10T03:44:47.850Z,99154.00
2018-07-10T03:46:51.342Z,99162.00
2018-07-10T03:48:54.975Z,99157.00
2018-07-10T03:50:58.794Z,99161.00
2018-07-10T03:53:02.496Z,99152.00
2018-07-10T03:55:16.831Z,99164.00
2018-07-10T03:57:23.348Z,99163.00
2018-07-10T03:59:30.252Z,99171.00
2018-07-10T04:01:36.463Z,99163.00
2018-07-10T04:03:41.199Z,99178.00
2018-07-10T04:05:44.800Z,99165.00
2018-07-10T04:07:50.800Z,99161.00
2018-07-10T04:09:56.226Z,99166.00
2018-07-10T04:12:01.202Z,99154.00
2018-07-10T04:14:06.751Z,99160.00
2018-07-10T04:16:13.604Z,99162.00
2018-07-10T04:18:21.636Z,99155.00
2018-07-10T04:20:26.528Z,99156.00
2018-07-10T04:22:30.035Z,99155.00
2018-07-10T04:24:34.117Z,99154.00
2018-07-10T04:26:40.321Z,99156.00
2018-07-10T04:28:46.827Z,99152.00
2018-07-10T04:32:02.395Z,99155.00
2018-07-10T04:34:06.625Z,99155.00
2018-07-10T04:36:11.492Z,99154.00
2018-07-10T04:38:19.876Z,99160.00
2018-07-10T04:40:25.665Z,99155.00
2018-07-10T04:42:50.237Z,99144.00
2018-07-10T04:44:59.183Z,99151.00
2018-07-10T04:47:12.357Z,99147.00
2018-07-10T04:49:29.967Z,99152.00
2018-07-10T04:51:37.710Z,99159.00
2018-07-10T04:53:43.295Z,99150.00
2018-07-10T04:55:47.056Z,99143.00
2018-07-10T04:58:01.322Z,99148.00
2018-07-10T05:00:06.179Z,99143.00
2018-07-10T05:02:10.361Z,99149.00
2018-07-10T05:04:14.934Z,99143.00
2018-07-10T05:06:20.375Z,99143.00
2018-07-10T05:08:24.741Z,99148.00
2018-07-10T05:10:29.753Z,99150.00
2018-07-10T05:12:33.161Z,99159.00
2018-07-10T05:14:40.347Z,99158.00
2018-07-10T05:16:44.054Z,99159.00
2018-07-10T05:18:47.466Z,99154.00
2018-07-10T05:20:51.429Z,99159.00
2018-07-10T05:22:54.854Z,99166.00
2018-07-10T05:24:58.729Z,99155.00
2018-07-10T05:27:02.428Z,99166.00
2018-07-10T05:29:08.637Z,99164.00
2018-07-10T05:31:14.868Z,99155.00
2018-07-10T05:33:23.099Z,99164.00
2018-07-10T05:35:26.780Z,99165.00
2018-07-10T05:37:33.066Z,99168.00
2018-07-10T05:39:41.491Z,99167.00
2018-07-10T05:41:47.888Z,99171.00
2018-07-10T05:43:53.405Z,99161.00
2018-07-10T05:45:57.408Z,99164.00
2018-07-10T05:48:02.292Z,99164.00
2018-07-10T05:50:13.944Z,99165.00
2018-07-10T05:52:21.465Z,99165.00
2018-07-10T05:54:26.713Z,99168.00
2018-07-10T05:56:30.210Z,99168.00
2018-07-10T05:58:33.992Z,99159.00
2018-07-10T06:00:37.373Z,99164.00
2018-07-10T06:02:41.076Z,99167.00
2018-07-10T06:04:44.984Z,99177.00
2018-07-10T06:06:48.429Z,99176.00
2018-07-10T06:08:51.924Z,99172.00
2018-07-10T06:10:56.108Z,99169.00
2018-07-10T06:13:00.976Z,99171.00
2018-07-10T06:15:05.022Z,99172.00
2018-07-10T06:17:12.475Z,99168.00
2018-07-10T06:19:21.365Z,99170.00
2018-07-10T06:21:31.911Z,99167.00
2018-07-10T06:23:44.239Z,99167.00
2018-07-10T06:25:47.829Z,99166.00
2018-07-10T06:27:58.426Z,99155.00
2018-07-10T06:30:09.338Z,99170.00
2018-07-10T06:32:20.905Z,99174.00
2018-07-10T06:34:32.904Z,99174.00
2018-07-10T06:36:40.270Z,99168.00
2018-07-10T06:38:47.415Z,99165.00
2018-07-10T06:40:51.785Z,99164.00
2018-07-10T06:43:12.012Z,99163.00
2018-07-10T06:45:19.312Z,99173.00
2018-07-10T06:47:29.496Z,99167.00
2018-07-10T06:49:35.422Z,99173.00
2018-07-10T06:51:43.415Z,99167.00
2018-07-10T06:53:48.056Z,99165.00
2018-07-10T06:55:56.732Z,99156.00
2018-07-10T06:58:01.593Z,99154.00
2018-07-10T07:00:12.382Z,99158.00
2018-07-10T07:02:22.831Z,99160.00
2018-07-10T07:04:26.849Z,99155.00
2018-07-10T07:06:32.015Z,99149.00
2018-07-10T07:08:36.602Z,99151.00
2018-07-10T07:10:41.013Z,99153.00
2018-07-10T07:12:46.925Z,99151.00
2018-07-10T07:14:53.304Z,99147.00
2018-07-10T07:16:57.248Z,99149.00
2018-07-10T07:19:01.782Z,99152.00
2018-07-10T07:21:08.214Z,99154.00
2018-07-10T07:23:14.998Z,99150.00
2018-07-10T07:25:22.192Z,99162.00
2018-07-10T07:27:27.900Z,99165.00
2018-07-10T07:29:32.207Z,99154.00
2018-07-10T07:31:36.050Z,99164.00
2018-07-10T07:33:39.822Z,99154.00
2018-07-10T07:35:43.446Z,99147.00
2018-07-10T07:37:47.312Z,99150.00
2018-07-10T07:39:50.907Z,99148.00
2018-07-10T07:41:54.787Z,99145.00
2018-07-10T07:43:58.804Z,99152.00
2018-07-10T07:46:04.364Z,99147.00
2018-07-10T07:48:13.157Z,99142.00
2018-07-10T07:50:21.544Z,99142.00
2018-07-10T07:52:28.602Z,99136.00
2018-07-10T07:54:32.411Z,99132.00
2018-07-10T07:56:35.954Z,99125.00
2018-07-10T07:58:39.969Z,99125.00
2018-07-10T08:00:44.091Z,99126.00
2018-07-10T08:02:47.705Z,99124.00
2018-07-10T08:04:51.486Z,99109.00
2018-07-10T08:06:55.063Z,99106.00
2018-07-10T08:08:58.836Z,99106.00
2018-07-10T08:11:03.577Z,99107.00
2018-07-10T08:13:10.147Z,99110.00
2018-07-10T08:15:16.847Z,99111.00
2018-07-10T08:17:24.879Z,99113.00
2018-07-10T08:19:28.458Z,99114.00
2018-07-10T08:21:32.213Z,99114.00
2018-07-10T08:23:36.097Z,99110.00
2018-07-10T08:25:39.679Z,99108.00
2018-07-10T08:27:43.568Z,99109.00
2018-07-10T08:29:47.588Z,99102.00
2018-07-10T08:31:51.421Z,99099.00
2018-07-10T08:33:56.070Z,99098.00
2018-07-10T08:36:00.465Z,99096.00
2018-07-10T08:38:04.437Z,99100.00
2018-07-10T08:40:11.782Z,99098.00
2018-07-10T08:42:17.420Z,99096.00
2018-07-10T08:44:22.566Z,99087.00
2018-07-10T08:46:28.740Z,99087.00
2018-07-10T08:48:33.114Z,99086.00
2018-07-10T08:50:36.606Z,99080.00
2018-07-10T08:52:40.569Z,99070.00
2018-07-10T08:54:44.193Z,99066.00
2018-07-10T08:56:47.819Z,99064.00
2018-07-10T08:58:51.298Z,99065.00
2018-07-10T09:00:55.188Z,99065.00
2018-07-10T09:02:58.950Z,99074.00
2018-07-10T09:05:02.554Z,99073.00
2018-07-10T09:07:09.472Z,99078.00
2018-07-10T09:09:16.446Z,99073.00
2018-07-10T09:11:23.558Z,99075.00
2018-07-10T09:13:27.526Z,99074.00
2018-07-10T09:15:33.021Z,99088.00
2018-07-10T09:17:36.937Z,99077.00
2018-07-10T09:19:40.898Z,99081.00
2018-07-10T09:21:51.834Z,99078.00
2018-07-10T09:23:55.869Z,99075.00
2018-07-10T09:26:01.974Z,99082.00
2018-07-10T09:28:08.673Z,99075.00
2018-07-10T09:30:14.894Z,99079.00
2018-07-10T09:32:32.799Z,99084.00
2018-07-10T09:34:36.614Z,99078.00
2018-07-10T09:36:54.320Z,99085.00
2018-07-10T09:38:59.790Z,99078.00
2018-07-10T09:41:04.316Z,99080.00
2018-07-10T09:43:12.486Z,99072.00
2018-07-10T09:45:20.344Z,99069.00
2018-07-10T09:47:25.552Z,99068.00
2018-07-10T09:49:29.124Z,99072.00
2018-07-10T09:51:33.282Z,99070.00
2018-07-10T09:53:36.933Z,99067.00
2018-07-10T09:55:41.126Z,99065.00
2018-07-10T09:57:46.569Z,99063.00
2018-07-10T09:59:51.404Z,99063.00
2018-07-10T10:02:03.237Z,99061.00
2018-07-10T10:04:17.544Z,99058.00
2018-07-10T10:06:31.038Z,99058.00
2018-07-10T10:08:40.456Z,99054.00
2018-07-10T10:10:46.288Z,99048.00
2018-07-10T10:12:53.449Z,99049.00
2018-07-10T10:14:58.854Z,99048.00
2018-07-10T10:17:03.175Z,99046.00
2018-07-10T10:19:09.297Z,99041.00
2018-07-10T10:21:14.986Z,99041.00
2018-07-10T10:23:24.067Z,99039.00
2018-07-10T10:25:27.794Z,99044.00
2018-07-10T10:27:31.496Z,99043.00
2018-07-10T10:29:35.589Z,99038.00
2018-07-10T10:31:39.168Z,99038.00
2018-07-10T10:33:42.895Z,99031.00
2018-07-10T10:35:46.344Z,99029.00
2018-07-10T10:37:49.903Z,99020.00
2018-07-10T10:39:55.485Z,99026.00
2018-07-10T10:42:00.296Z,99019.00
2018-07-10T10:44:03.932Z,99027.00
2018-07-10T10:46:10.123Z,99027.00
2018-07-10T10:48:17.864Z,99023.00
2018-07-10T10:50:26.135Z,99015.00
2018-07-10T10:52:29.556Z,99019.00
2018-07-10T10:54:33.463Z,99011.00
2018-07-10T10:56:37.314Z,99022.00
2018-07-10T10:58:41.016Z,99009.00
2018-07-10T11:00:44.620Z,99014.00
2018-07-10T11:02:48.321Z,99020.00
2018-07-10T11:04:52.887Z,99012.00
2018-07-10T11:06:57.104Z,99014.00
2018-07-10T11:09:01.070Z,99012.00
2018-07-10T11:11:06.326Z,99008.00
2018-07-10T11:13:14.032Z,99003.00
2018-07-10T11:15:18.824Z,99002.00
2018-07-10T11:17:30.799Z,98997.00
2018-07-10T11:19:39.488Z,99000.00
2018-07-10T11:22:21.305Z,98991.00
2018-07-10T11:24:24.891Z,98988.00
2018-07-10T11:26:37.115Z,99000.00
2018-07-10T11:28:40.735Z,98994.00
2018-07-10T11:30:44.255Z,98989.00
2018-07-10T11:32:48.544Z,99000.00
2018-07-10T11:34:52.013Z,98995.00
2018-07-10T11:36:55.593Z,98989.00
2018-07-10T11:39:13.894Z,98997.00
2018-07-10T11:41:21.402Z,98993.00
2018-07-10T11:43:25.068Z,98992.00
2018-07-10T11:45:29.084Z,98993.00
2018-07-10T11:47:32.995Z,98999.00
2018-07-10T11:49:36.657Z,98993.00
2018-07-10T11:51:40.157Z,98995.00
2018-07-10T11:53:43.668Z,98989.00
2018-07-10T11:55:47.325Z,98992.00
2018-07-10T11:57:51.341Z,98990.00
2018-07-10T11:59:54.906Z,98990.00
2018-07-10T12:01:58.384Z,98988.00
2018-07-10T12:04:02.628Z,98986.00
2018-07-10T12:06:09.935Z,98988.00
2018-07-10T12:08:16.306Z,98986.00
2018-07-10T12:10:24.831Z,98982.00
2018-07-10T12:12:28.438Z,98985.00
2018-07-10T12:14:32.041Z,98984.00
2018-07-10T12:16:35.578Z,98989.00
2018-07-10T12:18:39.219Z,98985.00
2018-07-10T12:20:42.843Z,98986.00
2018-07-10T12:22:46.957Z,98985.00
2018-07-10T12:24:50.789Z,98986.00
2018-07-10T12:26:54.466Z,98981.00
2018-07-10T12:28:58.654Z,98988.00
2018-07-10T12:31:02.717Z,98990.00
2018-07-10T12:33:09.086Z,98987.00
2018-07-10T12:35:14.921Z,98984.00
2018-07-10T12:37:20.059Z,98984.00
2018-07-10T12:39:24.933Z,98976.00
2018-07-10T12:41:28.479Z,98981.00
2018-07-10T12:43:32.329Z,98977.00
2018-07-10T12:45:35.881Z,98984.00
2018-07-10T12:47:39.817Z,98974.00
2018-07-10T12:49:43.329Z,98982.00
2018-07-10T12:51:46.923Z,98977.00
2018-07-10T12:53:50.782Z,98980.00
2018-07-10T12:55:54.295Z,98978.00
2018-07-10T12:57:58.026Z,98978.00
2018-07-10T13:00:03.548Z,98981.00
2018-07-10T13:02:10.103Z,98970.00
2018-07-10T13:04:15.923Z,98973.00
2018-07-10T13:06:20.952Z,98976.00
2018-07-10T13:08:25.020Z,98965.00
2018-07-10T13:10:28.989Z,98974.00
2018-07-10T13:12:33.044Z,98981.00
2018-07-10T13:14:36.517Z,98979.00
2018-07-10T13:16:40.027Z,98979.00
2018-07-10T13:18:44.037Z,98985.00
2018-07-10T13:20:47.774Z,98981.00
2018-07-10T13:22:51.335Z,98980.00
2018-07-10T13:24:55.117Z,98988.00
2018-07-10T13:26:59.188Z,98990.00
2018-07-10T13:29:02.900Z,98991.00
2018-07-10T13:31:10.217Z,98988.00
2018-07-10T13:33:16.588Z,98990.00
2018-07-10T13:35:23.287Z,98995.00
2018-07-10T13:37:28.713Z,98994.00
2018-07-10T13:39:32.735Z,98985.00
2018-07-10T13:41:36.805Z,98987.00
2018-07-10T13:43:40.623Z,98987.00
2018-07-10T13:45:45.208Z,98981.00
2018-07-10T13:47:49.154Z,98985.00
2018-07-10T13:49:54.229Z,98985.00
2018-07-10T13:51:58.464Z,98988.00
2018-07-10T13:54:02.053Z,98987.00
2018-07-10T13:56:07.568Z,98988.00
2018-07-10T13:58:23.514Z,98986.00
2018-07-10T14:00:27.327Z,98978.00
2018-07-10T14:02:33.355Z,98980.00
2018-07-10T14:04:37.219Z,98974.00
2018-07-10T14:06:41.356Z,98979.00
2018-07-10T14:08:45.489Z,98969.00
2018-07-10T14:10:49.243Z,98976.00
2018-07-10T14:12:53.125Z,98969.00
2018-07-10T14:14:58.492Z,98975.00
2018-07-10T14:17:02.431Z,98969.00
2018-07-10T14:19:07.437Z,98971.00
2018-07-10T14:21:15.819Z,98969.00
2018-07-10T14:23:22.320Z,98973.00
2018-07-10T14:25:25.859Z,98969.00
2018-07-10T14:27:30.254Z,98969.00
2018-07-10T14:29:34.711Z,98964.00
2018-07-10T14:31:38.599Z,98967.00
2018-07-10T14:33:43.571Z,98964.00
2018-07-10T14:35:47.142Z,98970.00
2018-07-10T14:37:50.915Z,98965.00
2018-07-10T14:39:54.789Z,98964.00
2018-07-10T14:41:58.275Z,98959.00
2018-07-10T14:44:02.168Z,98963.00
2018-07-10T14:46:11.790Z,98956.00
2018-07-10T14:48:19.462Z,98954.00
2018-07-10T14:50:24.076Z,98950.00
2018-07-10T14:52:27.676Z,98954.00
2018-07-10T14:54:31.228Z,98949.00
2018-07-10T14:56:35.422Z,98943.00
2018-07-10T14:58:39.409Z,98942.00
2018-07-10T15:00:42.970Z,98946.00
2018-07-10T15:02:46.679Z,98943.00
2018-07-10T15:04:50.800Z,98947.00
2018-07-10T15:06:54.782Z,98943.00
2018-07-10T15:08:58.539Z,98946.00
2018-07-10T15:11:03.671Z,98941.00
2018-07-10T15:13:09.907Z,98944.00
2018-07-10T15:15:16.431Z,98941.00
2018-07-10T15:17:27.039Z,98939.00
2018-07-10T15:19:30.630Z,98945.00
2018-07-10T15:21:34.391Z,98943.00
2018-07-10T15:23:38.728Z,98948.00
2018-07-10T15:25:42.578Z,98957.00
2018-07-10T15:27:46.235Z,98951.00
2018-07-10T15:29:50.129Z,98946.00
2018-07-10T15:31:53.912Z,98961.00
2018-07-10T15:33:57.736Z,98960.00
2018-07-10T15:36:01.703Z,98946.00
2018-07-10T15:38:11.424Z,98949.00
2018-07-10T15:40:17.512Z,98953.00
2018-07-10T15:42:23.223Z,98960.00
2018-07-10T15:44:26.683Z,98965.00
2018-07-10T15:46:30.144Z,98954.00
2018-07-10T15:48:34.045Z,98961.00
2018-07-10T15:50:37.486Z,98964.00
2018-07-10T15:52:41.050Z,98957.00
2018-07-10T15:54:44.950Z,98964.00
2018-07-10T15:56:48.435Z,98965.00
2018-07-10T15:58:52.019Z,98962.00
2018-07-10T16:00:55.977Z,98961.00
2018-07-10T16:02:59.564Z,98956.00
2018-07-10T16:05:04.472Z,98956.00
2018-07-10T16:07:13.050Z,98955.00
2018-07-10T16:09:21.584Z,98956.00
2018-07-10T16:11:25.654Z,98951.00
2018-07-10T16:13:41.904Z,98957.00
2018-07-10T16:15:47.330Z,98961.00
2018-07-10T16:17:52.915Z,98960.00
2018-07-10T16:20:24.010Z,98970.00
2018-07-10T16:22:28.794Z,98968.00
2018-07-10T16:24:35.369Z,98959.00
2018-07-10T16:26:46.896Z,98963.00
2018-07-10T16:28:52.905Z,98966.00
2018-07-10T16:30:58.293Z,98958.00
2018-07-10T16:33:02.203Z,98963.00
2018-07-10T16:35:08.159Z,98973.00
2018-07-10T16:37:17.319Z,98969.00
2018-07-10T16:39:25.444Z,98961.00
2018-07-10T16:41:34.983Z,98967.00
2018-07-10T16:43:38.538Z,98971.00
2018-07-10T16:45:42.786Z,98968.00
2018-07-10T16:47:49.813Z,98968.00
2018-07-10T16:49:53.550Z,98975.00
2018-07-10T16:52:12.522Z,98977.00
2018-07-10T16:54:19.246Z,98982.00
2018-07-10T16:56:23.443Z,98965.00
2018-07-10T16:58:27.264Z,98967.00
2018-07-10T17:00:31.039Z,98977.00
2018-07-10T17:02:35.420Z,98970.00
2018-07-10T17:04:40.050Z,98968.00
2018-07-10T17:08:51.895Z,98971.00
2018-07-10T17:10:56.065Z,98980.00
2018-07-10T17:12:59.595Z,98984.00
2018-07-10T17:15:03.214Z,98977.00
2018-07-10T17:17:13.635Z,98982.00
2018-07-10T17:19:21.034Z,98986.00
2018-07-10T17:21:25.758Z,98988.00
2018-07-10T17:23:29.359Z,98989.00
2018-07-10T17:25:33.284Z,98995.00
2018-07-10T17:27:37.037Z,98989.00
2018-07-10T17:29:41.086Z,99000.00
2018-07-10T17:31:44.890Z,99001.00
2018-07-10T17:33:48.975Z,99014.00
2018-07-10T17:35:52.755Z,99010.00
2018-07-10T17:37:56.308Z,99011.00
2018-07-10T17:40:03.651Z,99011.00
2018-07-10T17:42:10.694Z,99006.00
2018-07-10T17:44:20.258Z,99026.00
2018-07-10T17:46:24.885Z,99023.00
2018-07-10T17:48:31.124Z,99019.00
2018-07-10T17:50:36.526Z,99016.00
2018-07-10T17:52:40.697Z,99025.00
2018-07-10T17:54:46.378Z,99033.00
2018-07-10T17:56:50.181Z,99031.00
2018-07-10T17:58:53.890Z,99040.00
2018-07-10T18:00:57.896Z,99047.00
2018-07-10T18:03:01.708Z,99035.00
2018-07-10T18:05:11.105Z,99032.00
2018-07-10T18:07:19.969Z,99031.00
2018-07-10T18:09:29.926Z,99038.00
2018-07-10T18:11:33.503Z,99034.00
2018-07-10T18:13:41.411Z,99033.00
2018-07-10T18:15:47.143Z,99037.00
2018-07-10T18:17:53.865Z,99040.00
2018-07-10T18:19:58.100Z,99039.00
2018-07-10T18:22:04.353Z,99034.00
2018-07-10T18:24:13.964Z,99033.00
2018-07-10T18:26:20.702Z,99034.00
2018-07-10T18:28:28.857Z,99034.00
2018-07-10T18:30:33.009Z,99032.00
2018-07-10T18:32:36.909Z,99037.00
2018-07-10T18:34:42.374Z,99034.00
2018-07-10T18:36:47.936Z,99029.00
2018-07-10T18:39:01.013Z,99032.00
2018-07-10T18:41:17.430Z,99038.00
2018-07-10T18:43:26.284Z,99037.00
2018-07-10T18:45:31.921Z,99037.00
2018-07-10T18:48:13.455Z,99040.00
2018-07-10T18:50:24.318Z,99047.00
2018-07-10T18:56:56.004Z,99050.00
2018-07-10T19:01:52.899Z,99053.00
2018-07-10T19:13:56.900Z,99061.00
2018-07-10T19:16:49.149Z,99052.00
2018-07-10T19:18:54.245Z,99059.00
2018-07-10T19:27:36.545Z,99071.00
2018-07-10T19:29:53.757Z,99075.00
2018-07-10T19:33:32.637Z,99072.00
2018-07-10T19:38:58.236Z,99073.00
2018-07-10T19:41:02.212Z,99076.00
2018-07-10T19:43:09.141Z,99078.00
2018-07-10T19:47:26.448Z,99075.00
2018-07-10T19:49:31.719Z,99077.00
2018-07-10T19:55:39.952Z,99067.00
2018-07-10T20:04:11.240Z,99074.00
2018-07-10T20:06:24.832Z,99071.00
2018-07-10T20:08:30.023Z,99069.00
2018-07-10T20:10:38.861Z,99070.00
2018-07-10T20:12:53.102Z,99068.00
2018-07-10T20:16:06.326Z,99068.00
2018-07-10T20:18:24.116Z,99070.00
2018-07-10T20:20:30.103Z,99068.00
2018-07-10T20:24:44.442Z,99069.00
2018-07-10T20:27:34.599Z,99071.00
2018-07-10T20:29:56.341Z,99070.00
2018-07-10T20:32:07.383Z,99073.00
2018-07-10T20:34:19.836Z,99074.00
2018-07-10T20:36:25.789Z,99074.00
2018-07-10T20:38:29.404Z,99071.00
2018-07-10T20:40:36.652Z,99072.00
2018-07-10T20:42:43.216Z,99069.00
2018-07-10T20:44:52.189Z,99068.00
2018-07-10T20:47:02.283Z,99075.00
2018-07-10T20:49:07.122Z,99071.00
2018-07-10T20:51:14.525Z,99072.00
2018-07-10T20:53:27.560Z,99080.00
2018-07-10T20:55:45.146Z,99082.00
2018-07-10T20:58:01.502Z,99079.00
2018-07-10T21:00:11.656Z,99084.00
2018-07-10T21:02:31.825Z,99071.00
2018-07-10T21:05:14.829Z,99082.00
2018-07-10T21:07:27.797Z,99081.00
2018-07-10T21:09:44.634Z,99078.00
2018-07-10T21:11:57.814Z,99072.00
2018-07-10T21:14:10.333Z,99072.00
2018-07-10T21:16:20.646Z,99072.00
2018-07-10T21:18:34.298Z,99066.00
2018-07-10T21:20:51.518Z,99072.00
2018-07-10T21:23:15.818Z,99065.00
2018-07-10T21:25:24.034Z,99068.00
2018-07-10T21:27:45.312Z,99065.00
2018-07-10T21:29:57.592Z,99070.00
2018-07-10T21:32:04.577Z,99072.00
2018-07-10T21:34:16.295Z,99070.00
2018-07-10T21:37:02.137Z,99064.00
2018-07-10T21:39:16.394Z,99068.00
2018-07-10T21:41:35.363Z,99067.00
2018-07-10T21:46:55.536Z,99068.00
2018-07-10T21:49:14.914Z,99070.00
2018-07-10T21:51:19.519Z,99068.00
2018-07-10T21:53:24.960Z,99067.00
2018-07-10T21:55:28.985Z,99069.00
2018-07-10T21:57:39.172Z,99066.00
2018-07-10T21:59:49.583Z,99064.00
2018-07-10T22:02:07.181Z,99069.00
2018-07-10T22:04:22.991Z,99066.00
2018-07-10T22:06:28.578Z,99066.00
2018-07-10T22:08:32.436Z,99063.00
2018-07-10T22:10:36.830Z,99062.00
2018-07-10T22:12:46.472Z,99060.00
2018-07-10T22:14:54.069Z,99065.00
2018-07-10T22:16:58.541Z,99058.00
2018-07-10T22:19:03.037Z,99058.00
2018-07-10T22:21:16.596Z,99054.00
2018-07-10T22:23:23.163Z,99048.00
2018-07-10T22:25:28.184Z,99056.00
2018-07-10T22:27:32.650Z,99054.00
2018-07-10T22:29:41.724Z,99063.00
2018-07-10T22:31:50.652Z,99060.00
2018-07-10T22:33:57.362Z,99057.00
2018-07-10T22:36:03.941Z,99054.00
2018-07-10T22:38:14.876Z,99057.00
2018-07-10T22:40:21.663Z,99059.00
2018-07-10T22:42:25.621Z,99053.00
2018-07-10T22:44:32.316Z,99056.00
2018-07-10T22:46:38.296Z,99059.00
2018-07-10T22:48:42.861Z,99056.00
2018-07-10T22:50:47.512Z,99055.00
2018-07-10T22:52:53.751Z,99049.00
2018-07-10T22:54:57.472Z,99053.00
2018-07-10T22:57:01.373Z,99054.00
2018-07-10T22:59:11.531Z,99049.00
2018-07-10T23:01:24.734Z,99045.00
2018-07-10T23:03:28.707Z,99035.00
2018-07-10T23:05:33.958Z,99042.00
2018-07-10T23:07:38.200Z,99052.00
2018-07-10T23:09:41.833Z,99052.00
2018-07-10T23:11:47.014Z,99046.00
2018-07-10T23:13:51.005Z,99049.00
2018-07-10T23:15:55.433Z,99048.00
2018-07-10T23:18:00.030Z,99041.00
2018-07-10T23:20:06.441Z,99042.00
2018-07-10T23:22:16.951Z,99047.00
2018-07-10T23:24:24.899Z,99047.00
2018-07-10T23:26:28.748Z,99043.00
2018-07-10T23:28:33.030Z,99040.00
2018-07-10T23:30:42.687Z,99041.00
2018-07-10T23:32:46.422Z,99032.00
2018-07-10T23:34:50.494Z,99035.00
2018-07-10T23:36:59.086Z,99039.00
2018-07-10T23:39:12.180Z,99037.00
2018-07-10T23:41:29.176Z,99031.00
2018-07-10T23:43:41.795Z,99029.00
2018-07-10T23:45:47.187Z,99025.00
2018-07-10T23:47:54.912Z,99025.00
2018-07-10T23:50:11.184Z,99027.00
2018-07-10T23:52:26.837Z,99032.00
2018-07-10T23:54:38.602Z,99025.00
2018-07-10T23:56:44.604Z,99020.00
2018-07-10T23:58:50.974Z,99024.00
